sensor_id;sensor_type;location;lat;lon;timestamp;temperature;humidity
36690;DHT22;22676;51.120;3.702;2024-03-22T00:01:14;23.60;48.40
36690;DHT22;22676;51.120;3.702;2024-03-22T00:03:39;23.60;48.60
36690;DHT22;22676;51.120;3.702;2024-03-22T00:06:05;23.60;48.40
36690;DHT22;22676;51.120;3.702;2024-03-22T00:08:30;23.60;48.40
36690;DHT22;22676;51.120;3.702;2024-03-22T00:10:56;23.50;48.20
36690;DHT22;22676;51.120;3.702;2024-03-22T00:13:21;23.50;48.10
36690;DHT22;22676;51.120;3.702;2024-03-22T00:15:47;23.40;48.10
36690;DHT22;22676;51.120;3.702;2024-03-22T00:18:12;23.50;48.30
36690;DHT22;22676;51.120;3.702;2024-03-22T00:20:38;23.50;48.20
36690;DHT22;22676;51.120;3.702;2024-03-22T00:23:03;23.50;48.20
36690;DHT22;22676;51.120;3.702;2024-03-22T00:25:29;23.50;48.30
36690;DHT22;22676;51.120;3.702;2024-03-22T00:27:55;23.50;48.30
36690;DHT22;22676;51.120;3.702;2024-03-22T00:30:20;23.50;48.30
36690;DHT22;22676;51.120;3.702;2024-03-22T00:32:46;23.40;48.30
36690;DHT22;22676;51.120;3.702;2024-03-22T00:35:12;23.50;48.30
36690;DHT22;22676;51.120;3.702;2024-03-22T00:37:37;23.40;48.30
36690;DHT22;22676;51.120;3.702;2024-03-22T00:40:03;23.40;48.40
36690;DHT22;22676;51.120;3.702;2024-03-22T00:42:29;23.40;48.40
36690;DHT22;22676;51.120;3.702;2024-03-22T00:44:55;23.40;48.40
36690;DHT22;22676;51.120;3.702;2024-03-22T00:47:22;23.40;48.50
36690;DHT22;22676;51.120;3.702;2024-03-22T00:49:47;23.40;48.40
36690;DHT22;22676;51.120;3.702;2024-03-22T00:52:13;23.40;48.40
36690;DHT22;22676;51.120;3.702;2024-03-22T00:54:38;23.40;48.30
36690;DHT22;22676;51.120;3.702;2024-03-22T00:57:05;23.40;48.30
36690;DHT22;22676;51.120;3.702;2024-03-22T00:59:31;23.40;48.30
36690;DHT22;22676;51.120;3.702;2024-03-22T01:01:56;23.40;48.30
36690;DHT22;22676;51.120;3.702;2024-03-22T01:04:22;23.40;48.30
36690;DHT22;22676;51.120;3.702;2024-03-22T01:06:47;23.40;48.30
36690;DHT22;22676;51.120;3.702;2024-03-22T01:09:14;23.40;48.30
36690;DHT22;22676;51.120;3.702;2024-03-22T01:11:39;23.40;48.00
36690;DHT22;22676;51.120;3.702;2024-03-22T01:14:05;23.30;47.90
36690;DHT22;22676;51.120;3.702;2024-03-22T01:16:31;23.30;48.10
36690;DHT22;22676;51.120;3.702;2024-03-22T01:18:56;23.30;48.20
36690;DHT22;22676;51.120;3.702;2024-03-22T01:21:22;23.30;48.10
36690;DHT22;22676;51.120;3.702;2024-03-22T01:23:51;23.30;48.10
36690;DHT22;22676;51.120;3.702;2024-03-22T01:26:16;23.30;48.20
36690;DHT22;22676;51.120;3.702;2024-03-22T01:28:42;23.30;48.10
36690;DHT22;22676;51.120;3.702;2024-03-22T01:31:07;23.30;48.10
36690;DHT22;22676;51.120;3.702;2024-03-22T01:33:33;23.30;48.10
36690;DHT22;22676;51.120;3.702;2024-03-22T01:35:58;23.30;48.10
36690;DHT22;22676;51.120;3.702;2024-03-22T01:38:24;23.30;48.10
36690;DHT22;22676;51.120;3.702;2024-03-22T01:40:49;23.30;48.10
36690;DHT22;22676;51.120;3.702;2024-03-22T01:43:15;23.30;48.10
36690;DHT22;22676;51.120;3.702;2024-03-22T01:45:40;23.30;48.10
36690;DHT22;22676;51.120;3.702;2024-03-22T01:48:06;23.30;48.10
36690;DHT22;22676;51.120;3.702;2024-03-22T01:50:32;23.30;48.10
36690;DHT22;22676;51.120;3.702;2024-03-22T01:52:58;23.30;48.10
36690;DHT22;22676;51.120;3.702;2024-03-22T01:55:23;23.30;48.20
36690;DHT22;22676;51.120;3.702;2024-03-22T01:57:49;23.30;48.20
36690;DHT22;22676;51.120;3.702;2024-03-22T02:00:17;23.30;48.30
36690;DHT22;22676;51.120;3.702;2024-03-22T02:02:42;23.30;48.30
36690;DHT22;22676;51.120;3.702;2024-03-22T02:05:12;23.30;48.30
36690;DHT22;22676;51.120;3.702;2024-03-22T02:07:37;23.30;48.30
36690;DHT22;22676;51.120;3.702;2024-03-22T02:10:03;23.20;48.20
36690;DHT22;22676;51.120;3.702;2024-03-22T02:12:28;23.20;48.00
36690;DHT22;22676;51.120;3.702;2024-03-22T02:14:57;23.20;47.90
36690;DHT22;22676;51.120;3.702;2024-03-22T02:17:23;23.10;48.00
36690;DHT22;22676;51.120;3.702;2024-03-22T02:19:48;23.20;48.10
36690;DHT22;22676;51.120;3.702;2024-03-22T02:22:14;23.20;48.10
36690;DHT22;22676;51.120;3.702;2024-03-22T02:24:39;23.10;48.10
36690;DHT22;22676;51.120;3.702;2024-03-22T02:27:05;23.20;48.20
36690;DHT22;22676;51.120;3.702;2024-03-22T02:29:30;23.10;48.10
36690;DHT22;22676;51.120;3.702;2024-03-22T02:31:56;23.20;48.20
36690;DHT22;22676;51.120;3.702;2024-03-22T02:34:23;23.10;48.20
36690;DHT22;22676;51.120;3.702;2024-03-22T02:36:49;23.10;48.20
36690;DHT22;22676;51.120;3.702;2024-03-22T02:39:14;23.10;48.20
36690;DHT22;22676;51.120;3.702;2024-03-22T02:41:40;23.10;48.20
36690;DHT22;22676;51.120;3.702;2024-03-22T02:44:05;23.10;48.30
36690;DHT22;22676;51.120;3.702;2024-03-22T02:46:31;23.10;48.30
36690;DHT22;22676;51.120;3.702;2024-03-22T02:48:56;23.10;48.20
36690;DHT22;22676;51.120;3.702;2024-03-22T02:51:22;23.10;48.30
36690;DHT22;22676;51.120;3.702;2024-03-22T02:53:47;23.00;48.30
36690;DHT22;22676;51.120;3.702;2024-03-22T02:56:13;23.00;48.40
36690;DHT22;22676;51.120;3.702;2024-03-22T02:58:38;22.90;49.00
36690;DHT22;22676;51.120;3.702;2024-03-22T03:01:04;22.90;48.60
36690;DHT22;22676;51.120;3.702;2024-03-22T03:03:31;22.80;48.60
36690;DHT22;22676;51.120;3.702;2024-03-22T03:05:56;22.80;48.70
36690;DHT22;22676;51.120;3.702;2024-03-22T03:08:22;22.80;48.80
36690;DHT22;22676;51.120;3.702;2024-03-22T03:10:47;22.70;48.70
36690;DHT22;22676;51.120;3.702;2024-03-22T03:13:13;22.70;48.40
36690;DHT22;22676;51.120;3.702;2024-03-22T03:15:38;22.70;48.40
36690;DHT22;22676;51.120;3.702;2024-03-22T03:18:04;22.60;48.60
36690;DHT22;22676;51.120;3.702;2024-03-22T03:20:29;22.60;48.80
36690;DHT22;22676;51.120;3.702;2024-03-22T03:22:55;22.50;49.00
36690;DHT22;22676;51.120;3.702;2024-03-22T03:25:23;22.50;49.10
36690;DHT22;22676;51.120;3.702;2024-03-22T03:27:48;22.40;49.20
36690;DHT22;22676;51.120;3.702;2024-03-22T03:30:14;22.40;49.20
36690;DHT22;22676;51.120;3.702;2024-03-22T03:32:39;22.40;49.30
36690;DHT22;22676;51.120;3.702;2024-03-22T03:35:05;22.40;49.40
36690;DHT22;22676;51.120;3.702;2024-03-22T03:37:30;22.30;49.40
36690;DHT22;22676;51.120;3.702;2024-03-22T03:39:56;22.30;49.50
36690;DHT22;22676;51.120;3.702;2024-03-22T03:42:22;22.30;49.60
36690;DHT22;22676;51.120;3.702;2024-03-22T03:44:47;22.20;49.50
36690;DHT22;22676;51.120;3.702;2024-03-22T03:47:13;22.20;49.60
36690;DHT22;22676;51.120;3.702;2024-03-22T03:49:38;22.20;49.70
36690;DHT22;22676;51.120;3.702;2024-03-22T03:52:04;22.20;49.70
36690;DHT22;22676;51.120;3.702;2024-03-22T03:54:29;22.20;49.70
36690;DHT22;22676;51.120;3.702;2024-03-22T03:56:55;22.10;49.70
36690;DHT22;22676;51.120;3.702;2024-03-22T03:59:20;22.10;49.80
36690;DHT22;22676;51.120;3.702;2024-03-22T04:01:46;22.10;49.80
36690;DHT22;22676;51.120;3.702;2024-03-22T04:04:12;22.10;49.80
36690;DHT22;22676;51.120;3.702;2024-03-22T04:06:37;22.00;49.80
36690;DHT22;22676;51.120;3.702;2024-03-22T04:09:03;22.10;49.90
36690;DHT22;22676;51.120;3.702;2024-03-22T04:11:29;22.00;49.60
36690;DHT22;22676;51.120;3.702;2024-03-22T04:13:54;22.00;49.30
36690;DHT22;22676;51.120;3.702;2024-03-22T04:16:20;22.10;49.50
36690;DHT22;22676;51.120;3.702;2024-03-22T04:18:45;22.00;49.50
36690;DHT22;22676;51.120;3.702;2024-03-22T04:21:11;22.00;49.70
36690;DHT22;22676;51.120;3.702;2024-03-22T04:23:36;22.00;49.80
36690;DHT22;22676;51.120;3.702;2024-03-22T04:26:02;21.90;49.80
36690;DHT22;22676;51.120;3.702;2024-03-22T04:28:28;21.90;49.90
36690;DHT22;22676;51.120;3.702;2024-03-22T04:30:54;21.90;49.90
36690;DHT22;22676;51.120;3.702;2024-03-22T04:33:20;21.90;50.00
36690;DHT22;22676;51.120;3.702;2024-03-22T04:35:45;21.90;50.00
36690;DHT22;22676;51.120;3.702;2024-03-22T04:38:11;21.80;50.00
36690;DHT22;22676;51.120;3.702;2024-03-22T04:40:36;21.80;50.00
36690;DHT22;22676;51.120;3.702;2024-03-22T04:43:02;21.80;50.00
36690;DHT22;22676;51.120;3.702;2024-03-22T04:45:27;21.80;50.10
36690;DHT22;22676;51.120;3.702;2024-03-22T04:47:53;21.80;50.10
36690;DHT22;22676;51.120;3.702;2024-03-22T04:50:18;21.80;50.10
36690;DHT22;22676;51.120;3.702;2024-03-22T04:52:44;21.80;50.20
36690;DHT22;22676;51.120;3.702;2024-03-22T04:55:09;21.80;50.20
36690;DHT22;22676;51.120;3.702;2024-03-22T04:57:35;21.80;50.20
36690;DHT22;22676;51.120;3.702;2024-03-22T05:00:00;21.80;50.20
36690;DHT22;22676;51.120;3.702;2024-03-22T05:02:26;21.80;50.90
36690;DHT22;22676;51.120;3.702;2024-03-22T05:04:51;21.80;50.30
36690;DHT22;22676;51.120;3.702;2024-03-22T05:07:17;21.70;50.30
36690;DHT22;22676;51.120;3.702;2024-03-22T05:09:42;21.70;50.10
36690;DHT22;22676;51.120;3.702;2024-03-22T05:12:08;21.70;49.90
36690;DHT22;22676;51.120;3.702;2024-03-22T05:14:33;21.70;49.70
36690;DHT22;22676;51.120;3.702;2024-03-22T05:16:59;21.70;49.90
36690;DHT22;22676;51.120;3.702;2024-03-22T05:19:24;21.70;50.00
36690;DHT22;22676;51.120;3.702;2024-03-22T05:21:49;21.70;50.10
36690;DHT22;22676;51.120;3.702;2024-03-22T05:24:15;21.70;50.20
36690;DHT22;22676;51.120;3.702;2024-03-22T05:26:40;21.60;50.20
36690;DHT22;22676;51.120;3.702;2024-03-22T05:29:06;21.60;50.10
36690;DHT22;22676;51.120;3.702;2024-03-22T05:31:32;21.60;50.20
36690;DHT22;22676;51.120;3.702;2024-03-22T05:34:10;21.60;50.10
36690;DHT22;22676;51.120;3.702;2024-03-22T05:36:36;21.80;50.00
36690;DHT22;22676;51.120;3.702;2024-03-22T05:39:01;21.80;49.80
36690;DHT22;22676;51.120;3.702;2024-03-22T05:41:27;21.90;49.70
36690;DHT22;22676;51.120;3.702;2024-03-22T05:43:52;22.00;49.50
36690;DHT22;22676;51.120;3.702;2024-03-22T05:46:18;22.10;49.50
36690;DHT22;22676;51.120;3.702;2024-03-22T05:48:43;22.20;49.30
36690;DHT22;22676;51.120;3.702;2024-03-22T05:51:09;22.30;49.40
36690;DHT22;22676;51.120;3.702;2024-03-22T05:53:34;22.40;49.50
36690;DHT22;22676;51.120;3.702;2024-03-22T05:56:00;22.50;49.50
36690;DHT22;22676;51.120;3.702;2024-03-22T05:58:25;22.50;49.40
36690;DHT22;22676;51.120;3.702;2024-03-22T06:00:51;22.70;49.40
36690;DHT22;22676;51.120;3.702;2024-03-22T06:03:18;22.70;49.30
36690;DHT22;22676;51.120;3.702;2024-03-22T06:05:44;22.80;49.20
36690;DHT22;22676;51.120;3.702;2024-03-22T06:08:09;22.90;49.10
36690;DHT22;22676;51.120;3.702;2024-03-22T06:10:35;23.00;48.40
36690;DHT22;22676;51.120;3.702;2024-03-22T06:13:00;23.00;47.80
36690;DHT22;22676;51.120;3.702;2024-03-22T06:15:26;23.00;48.10
36690;DHT22;22676;51.120;3.702;2024-03-22T06:17:51;23.10;48.70
36690;DHT22;22676;51.120;3.702;2024-03-22T06:20:18;23.20;48.70
36690;DHT22;22676;51.120;3.702;2024-03-22T06:22:44;23.20;49.00
36690;DHT22;22676;51.120;3.702;2024-03-22T06:25:09;23.20;48.40
36690;DHT22;22676;51.120;3.702;2024-03-22T06:27:35;23.20;48.40
36690;DHT22;22676;51.120;3.702;2024-03-22T06:30:00;23.20;48.40
36690;DHT22;22676;51.120;3.702;2024-03-22T06:32:26;23.30;48.70
36690;DHT22;22676;51.120;3.702;2024-03-22T06:34:51;23.30;48.60
36690;DHT22;22676;51.120;3.702;2024-03-22T06:37:17;23.40;48.50
36690;DHT22;22676;51.120;3.702;2024-03-22T06:39:42;23.40;48.30
36690;DHT22;22676;51.120;3.702;2024-03-22T06:42:08;23.50;48.30
36690;DHT22;22676;51.120;3.702;2024-03-22T06:44:33;23.50;48.10
36690;DHT22;22676;51.120;3.702;2024-03-22T06:46:59;23.60;48.00
36690;DHT22;22676;51.120;3.702;2024-03-22T06:49:24;23.70;47.90
36690;DHT22;22676;51.120;3.702;2024-03-22T06:51:50;23.70;47.70
36690;DHT22;22676;51.120;3.702;2024-03-22T06:54:16;23.80;47.60
36690;DHT22;22676;51.120;3.702;2024-03-22T06:56:42;23.80;47.50
36690;DHT22;22676;51.120;3.702;2024-03-22T06:59:07;23.90;47.40
36690;DHT22;22676;51.120;3.702;2024-03-22T07:01:33;23.90;47.10
36690;DHT22;22676;51.120;3.702;2024-03-22T07:03:58;24.00;47.20
36690;DHT22;22676;51.120;3.702;2024-03-22T07:06:24;24.00;46.90
36690;DHT22;22676;51.120;3.702;2024-03-22T07:08:49;23.90;46.80
36690;DHT22;22676;51.120;3.702;2024-03-22T07:11:15;23.80;46.80
36690;DHT22;22676;51.120;3.702;2024-03-22T07:13:40;23.70;47.00
36690;DHT22;22676;51.120;3.702;2024-03-22T07:16:06;23.60;47.00
36690;DHT22;22676;51.120;3.702;2024-03-22T07:18:31;23.60;47.00
36690;DHT22;22676;51.120;3.702;2024-03-22T07:20:57;23.60;47.40
36690;DHT22;22676;51.120;3.702;2024-03-22T07:23:27;23.60;46.90
36690;DHT22;22676;51.120;3.702;2024-03-22T07:25:52;23.50;46.00
36690;DHT22;22676;51.120;3.702;2024-03-22T07:28:17;23.30;45.60
36690;DHT22;22676;51.120;3.702;2024-03-22T07:30:43;23.10;45.20
36690;DHT22;22676;51.120;3.702;2024-03-22T07:33:10;23.00;44.90
36690;DHT22;22676;51.120;3.702;2024-03-22T07:35:38;22.90;45.00
36690;DHT22;22676;51.120;3.702;2024-03-22T07:38:04;22.80;45.00
36690;DHT22;22676;51.120;3.702;2024-03-22T07:40:29;22.70;45.00
36690;DHT22;22676;51.120;3.702;2024-03-22T07:42:55;22.60;45.30
36690;DHT22;22676;51.120;3.702;2024-03-22T07:45:21;22.50;45.40
36690;DHT22;22676;51.120;3.702;2024-03-22T07:47:46;22.50;45.30
36690;DHT22;22676;51.120;3.702;2024-03-22T07:50:13;22.40;45.30
36690;DHT22;22676;51.120;3.702;2024-03-22T07:52:39;22.30;45.20
36690;DHT22;22676;51.120;3.702;2024-03-22T07:55:04;22.30;45.50
36690;DHT22;22676;51.120;3.702;2024-03-22T07:57:30;22.20;45.70
36690;DHT22;22676;51.120;3.702;2024-03-22T07:59:57;22.20;45.60
36690;DHT22;22676;51.120;3.702;2024-03-22T08:02:22;22.20;45.70
36690;DHT22;22676;51.120;3.702;2024-03-22T08:04:48;22.10;45.70
36690;DHT22;22676;51.120;3.702;2024-03-22T08:07:14;22.10;46.00
36690;DHT22;22676;51.120;3.702;2024-03-22T08:09:39;22.10;45.90
36690;DHT22;22676;51.120;3.702;2024-03-22T08:12:05;22.00;45.60
36690;DHT22;22676;51.120;3.702;2024-03-22T08:14:31;21.90;45.80
36690;DHT22;22676;51.120;3.702;2024-03-22T08:16:57;21.90;46.00
36690;DHT22;22676;51.120;3.702;2024-03-22T08:19:23;21.90;46.00
36690;DHT22;22676;51.120;3.702;2024-03-22T08:21:48;21.90;45.90
36690;DHT22;22676;51.120;3.702;2024-03-22T08:24:14;21.90;46.10
36690;DHT22;22676;51.120;3.702;2024-03-22T08:26:39;21.80;46.00
36690;DHT22;22676;51.120;3.702;2024-03-22T08:29:05;21.80;46.00
36690;DHT22;22676;51.120;3.702;2024-03-22T08:31:30;21.80;46.10
36690;DHT22;22676;51.120;3.702;2024-03-22T08:33:56;21.90;46.20
36690;DHT22;22676;51.120;3.702;2024-03-22T08:36:22;21.90;46.10
36690;DHT22;22676;51.120;3.702;2024-03-22T08:38:48;22.00;46.20
36690;DHT22;22676;51.120;3.702;2024-03-22T08:41:14;22.00;46.30
36690;DHT22;22676;51.120;3.702;2024-03-22T08:43:40;22.10;46.40
36690;DHT22;22676;51.120;3.702;2024-03-22T08:46:05;22.10;46.90
36690;DHT22;22676;51.120;3.702;2024-03-22T08:48:30;22.10;47.10
36690;DHT22;22676;51.120;3.702;2024-03-22T08:50:56;22.10;46.80
36690;DHT22;22676;51.120;3.702;2024-03-22T08:53:21;22.20;46.90
36690;DHT22;22676;51.120;3.702;2024-03-22T08:55:48;22.20;46.90
36690;DHT22;22676;51.120;3.702;2024-03-22T08:58:14;22.20;46.90
36690;DHT22;22676;51.120;3.702;2024-03-22T09:00:40;22.20;47.10
36690;DHT22;22676;51.120;3.702;2024-03-22T09:03:06;22.20;47.10
36690;DHT22;22676;51.120;3.702;2024-03-22T09:05:31;22.20;47.10
36690;DHT22;22676;51.120;3.702;2024-03-22T09:07:59;22.20;47.10
36690;DHT22;22676;51.120;3.702;2024-03-22T09:10:24;22.20;47.20
36690;DHT22;22676;51.120;3.702;2024-03-22T09:12:50;22.20;47.10
36690;DHT22;22676;51.120;3.702;2024-03-22T09:15:16;22.20;47.40
36690;DHT22;22676;51.120;3.702;2024-03-22T09:17:42;22.10;47.50
36690;DHT22;22676;51.120;3.702;2024-03-22T09:20:07;22.20;47.50
36690;DHT22;22676;51.120;3.702;2024-03-22T09:22:33;22.20;47.60
36690;DHT22;22676;51.120;3.702;2024-03-22T09:24:59;22.20;47.70
36690;DHT22;22676;51.120;3.702;2024-03-22T09:27:24;22.20;47.60
36690;DHT22;22676;51.120;3.702;2024-03-22T09:29:50;22.20;47.60
36690;DHT22;22676;51.120;3.702;2024-03-22T09:32:15;22.20;47.60
36690;DHT22;22676;51.120;3.702;2024-03-22T09:34:41;22.20;47.90
36690;DHT22;22676;51.120;3.702;2024-03-22T09:37:07;22.20;47.90
36690;DHT22;22676;51.120;3.702;2024-03-22T09:39:33;22.20;47.80
36690;DHT22;22676;51.120;3.702;2024-03-22T09:41:59;22.20;47.90
36690;DHT22;22676;51.120;3.702;2024-03-22T09:44:27;22.20;48.00
36690;DHT22;22676;51.120;3.702;2024-03-22T09:46:52;22.20;47.90
36690;DHT22;22676;51.120;3.702;2024-03-22T09:49:18;22.20;48.30
36690;DHT22;22676;51.120;3.702;2024-03-22T09:51:44;22.20;48.40
36690;DHT22;22676;51.120;3.702;2024-03-22T09:54:11;22.20;48.20
36690;DHT22;22676;51.120;3.702;2024-03-22T09:56:39;22.20;48.20
36690;DHT22;22676;51.120;3.702;2024-03-22T09:59:05;22.30;48.20
36690;DHT22;22676;51.120;3.702;2024-03-22T10:01:31;22.20;48.60
36690;DHT22;22676;51.120;3.702;2024-03-22T10:03:57;22.20;48.40
36690;DHT22;22676;51.120;3.702;2024-03-22T10:06:22;22.20;48.80
36690;DHT22;22676;51.120;3.702;2024-03-22T10:08:48;22.30;48.30
36690;DHT22;22676;51.120;3.702;2024-03-22T10:11:13;22.30;48.00
36690;DHT22;22676;51.120;3.702;2024-03-22T10:13:39;22.30;48.10
36690;DHT22;22676;51.120;3.702;2024-03-22T10:16:04;22.30;48.10
36690;DHT22;22676;51.120;3.702;2024-03-22T10:18:32;22.30;48.10
36690;DHT22;22676;51.120;3.702;2024-03-22T10:21:04;22.30;48.00
36690;DHT22;22676;51.120;3.702;2024-03-22T10:23:30;22.30;48.20
36690;DHT22;22676;51.120;3.702;2024-03-22T10:25:56;22.30;48.10
36690;DHT22;22676;51.120;3.702;2024-03-22T10:28:23;22.30;48.20
36690;DHT22;22676;51.120;3.702;2024-03-22T10:30:50;22.30;48.00
36690;DHT22;22676;51.120;3.702;2024-03-22T10:33:15;22.40;48.10
36690;DHT22;22676;51.120;3.702;2024-03-22T10:35:41;22.40;48.10
36690;DHT22;22676;51.120;3.702;2024-03-22T10:38:09;22.40;48.10
36690;DHT22;22676;51.120;3.702;2024-03-22T10:40:36;22.40;48.10
36690;DHT22;22676;51.120;3.702;2024-03-22T10:43:02;22.40;48.10
36690;DHT22;22676;51.120;3.702;2024-03-22T10:45:28;22.40;48.00
36690;DHT22;22676;51.120;3.702;2024-03-22T10:47:55;22.40;48.00
36690;DHT22;22676;51.120;3.702;2024-03-22T10:50:20;22.50;48.00
36690;DHT22;22676;51.120;3.702;2024-03-22T10:52:50;22.40;48.10
36690;DHT22;22676;51.120;3.702;2024-03-22T10:55:51;22.40;48.10
36690;DHT22;22676;51.120;3.702;2024-03-22T10:58:16;22.50;48.20
36690;DHT22;22676;51.120;3.702;2024-03-22T11:00:42;22.50;47.70
36690;DHT22;22676;51.120;3.702;2024-03-22T11:03:12;22.40;47.60
36690;DHT22;22676;51.120;3.702;2024-03-22T11:05:48;22.40;48.10
36690;DHT22;22676;51.120;3.702;2024-03-22T11:08:22;22.40;48.00
36690;DHT22;22676;51.120;3.702;2024-03-22T11:10:48;22.40;47.70
36690;DHT22;22676;51.120;3.702;2024-03-22T11:13:15;22.40;47.80
36690;DHT22;22676;51.120;3.702;2024-03-22T11:15:41;22.30;47.90
36690;DHT22;22676;51.120;3.702;2024-03-22T11:18:07;22.30;47.70
36690;DHT22;22676;51.120;3.702;2024-03-22T11:20:32;22.30;47.80
36690;DHT22;22676;51.120;3.702;2024-03-22T11:23:01;22.30;47.90
36690;DHT22;22676;51.120;3.702;2024-03-22T11:25:26;22.20;48.10
36690;DHT22;22676;51.120;3.702;2024-03-22T11:27:52;22.20;48.10
36690;DHT22;22676;51.120;3.702;2024-03-22T11:30:19;22.30;48.00
36690;DHT22;22676;51.120;3.702;2024-03-22T11:32:45;22.30;47.90
36690;DHT22;22676;51.120;3.702;2024-03-22T11:35:11;22.30;47.90
36690;DHT22;22676;51.120;3.702;2024-03-22T11:37:38;22.30;47.80
36690;DHT22;22676;51.120;3.702;2024-03-22T11:40:03;22.40;48.20
36690;DHT22;22676;51.120;3.702;2024-03-22T11:42:32;22.40;48.20
36690;DHT22;22676;51.120;3.702;2024-03-22T11:44:58;22.40;48.10
36690;DHT22;22676;51.120;3.702;2024-03-22T11:47:24;22.40;48.00
36690;DHT22;22676;51.120;3.702;2024-03-22T11:49:50;22.40;48.20
36690;DHT22;22676;51.120;3.702;2024-03-22T11:52:15;22.40;48.10
36690;DHT22;22676;51.120;3.702;2024-03-22T11:54:41;22.40;48.00
36690;DHT22;22676;51.120;3.702;2024-03-22T11:57:07;22.40;48.40
36690;DHT22;22676;51.120;3.702;2024-03-22T11:59:33;22.40;48.30
36690;DHT22;22676;51.120;3.702;2024-03-22T12:01:59;22.40;48.60
36690;DHT22;22676;51.120;3.702;2024-03-22T12:04:25;22.60;48.30
36690;DHT22;22676;51.120;3.702;2024-03-22T12:06:50;22.70;48.00
36690;DHT22;22676;51.120;3.702;2024-03-22T12:09:16;22.70;47.70
36690;DHT22;22676;51.120;3.702;2024-03-22T12:11:41;22.70;47.50
36690;DHT22;22676;51.120;3.702;2024-03-22T12:14:07;22.70;47.50
36690;DHT22;22676;51.120;3.702;2024-03-22T12:16:32;22.70;47.50
36690;DHT22;22676;51.120;3.702;2024-03-22T12:18:58;22.70;47.70
36690;DHT22;22676;51.120;3.702;2024-03-22T12:21:23;22.80;47.60
36690;DHT22;22676;51.120;3.702;2024-03-22T12:23:49;22.80;47.50
36690;DHT22;22676;51.120;3.702;2024-03-22T12:26:15;22.90;47.50
36690;DHT22;22676;51.120;3.702;2024-03-22T12:28:40;22.90;47.50
36690;DHT22;22676;51.120;3.702;2024-03-22T12:31:07;23.00;47.50
36690;DHT22;22676;51.120;3.702;2024-03-22T12:33:33;23.00;47.40
36690;DHT22;22676;51.120;3.702;2024-03-22T12:35:58;23.00;47.40
36690;DHT22;22676;51.120;3.702;2024-03-22T12:38:24;23.10;47.70
36690;DHT22;22676;51.120;3.702;2024-03-22T12:40:49;23.10;47.30
36690;DHT22;22676;51.120;3.702;2024-03-22T12:43:15;23.20;47.30
36690;DHT22;22676;51.120;3.702;2024-03-22T12:45:40;23.20;47.30
36690;DHT22;22676;51.120;3.702;2024-03-22T12:48:06;23.20;47.20
36690;DHT22;22676;51.120;3.702;2024-03-22T12:50:31;23.30;47.20
36690;DHT22;22676;51.120;3.702;2024-03-22T12:52:58;23.30;47.30
36690;DHT22;22676;51.120;3.702;2024-03-22T12:55:23;23.40;48.00
36690;DHT22;22676;51.120;3.702;2024-03-22T12:57:50;23.50;47.40
36690;DHT22;22676;51.120;3.702;2024-03-22T13:00:16;23.50;47.30
36690;DHT22;22676;51.120;3.702;2024-03-22T13:02:44;23.60;47.30
36690;DHT22;22676;51.120;3.702;2024-03-22T13:05:10;23.70;47.00
36690;DHT22;22676;51.120;3.702;2024-03-22T13:07:36;23.70;46.70
36690;DHT22;22676;51.120;3.702;2024-03-22T13:10:01;23.70;46.40
36690;DHT22;22676;51.120;3.702;2024-03-22T13:12:28;23.70;46.50
36690;DHT22;22676;51.120;3.702;2024-03-22T13:14:54;23.70;46.50
36690;DHT22;22676;51.120;3.702;2024-03-22T13:17:20;23.70;46.70
36690;DHT22;22676;51.120;3.702;2024-03-22T13:19:45;23.60;46.90
36690;DHT22;22676;51.120;3.702;2024-03-22T13:22:11;23.60;46.90
36690;DHT22;22676;51.120;3.702;2024-03-22T13:24:37;23.60;46.90
36690;DHT22;22676;51.120;3.702;2024-03-22T13:27:03;23.60;46.90
36690;DHT22;22676;51.120;3.702;2024-03-22T13:29:29;23.60;47.00
36690;DHT22;22676;51.120;3.702;2024-03-22T13:31:54;23.60;47.00
36690;DHT22;22676;51.120;3.702;2024-03-22T13:34:20;23.60;47.20
36690;DHT22;22676;51.120;3.702;2024-03-22T13:36:45;23.60;47.30
36690;DHT22;22676;51.120;3.702;2024-03-22T13:39:12;23.60;47.30
36690;DHT22;22676;51.120;3.702;2024-03-22T13:41:41;23.60;47.60
36690;DHT22;22676;51.120;3.702;2024-03-22T13:44:06;23.50;47.70
36690;DHT22;22676;51.120;3.702;2024-03-22T13:46:33;23.50;47.80
36690;DHT22;22676;51.120;3.702;2024-03-22T13:49:02;23.40;47.90
36690;DHT22;22676;51.120;3.702;2024-03-22T13:51:27;23.50;48.00
36690;DHT22;22676;51.120;3.702;2024-03-22T13:53:54;23.40;48.00
36690;DHT22;22676;51.120;3.702;2024-03-22T13:56:20;23.40;48.00
36690;DHT22;22676;51.120;3.702;2024-03-22T13:58:46;23.30;48.10
36690;DHT22;22676;51.120;3.702;2024-03-22T14:01:12;23.30;48.20
36690;DHT22;22676;51.120;3.702;2024-03-22T14:03:37;23.30;48.40
36690;DHT22;22676;51.120;3.702;2024-03-22T14:06:03;23.20;48.50
36690;DHT22;22676;51.120;3.702;2024-03-22T14:08:29;23.20;48.40
36690;DHT22;22676;51.120;3.702;2024-03-22T14:10:54;23.10;48.40
36690;DHT22;22676;51.120;3.702;2024-03-22T14:13:20;23.10;48.60
36690;DHT22;22676;51.120;3.702;2024-03-22T14:15:45;23.00;50.40
36690;DHT22;22676;51.120;3.702;2024-03-22T14:18:10;23.00;50.60
36690;DHT22;22676;51.120;3.702;2024-03-22T14:20:36;23.00;51.70
36690;DHT22;22676;51.120;3.702;2024-03-22T14:23:01;23.00;52.60
36690;DHT22;22676;51.120;3.702;2024-03-22T14:25:29;23.00;52.60
36690;DHT22;22676;51.120;3.702;2024-03-22T14:27:54;23.00;52.40
36690;DHT22;22676;51.120;3.702;2024-03-22T14:30:20;22.90;52.90
36690;DHT22;22676;51.120;3.702;2024-03-22T14:32:48;23.00;52.50
36690;DHT22;22676;51.120;3.702;2024-03-22T14:35:13;23.00;52.30
36690;DHT22;22676;51.120;3.702;2024-03-22T14:37:39;22.90;52.00
36690;DHT22;22676;51.120;3.702;2024-03-22T14:40:04;23.00;52.00
36690;DHT22;22676;51.120;3.702;2024-03-22T14:42:30;22.90;52.00
36690;DHT22;22676;51.120;3.702;2024-03-22T14:44:56;22.90;52.00
36690;DHT22;22676;51.120;3.702;2024-03-22T14:47:21;22.90;52.00
36690;DHT22;22676;51.120;3.702;2024-03-22T14:49:50;22.90;52.00
36690;DHT22;22676;51.120;3.702;2024-03-22T14:52:16;22.90;52.00
36690;DHT22;22676;51.120;3.702;2024-03-22T14:54:42;22.90;52.00
36690;DHT22;22676;51.120;3.702;2024-03-22T14:57:07;22.90;52.10
36690;DHT22;22676;51.120;3.702;2024-03-22T14:59:34;22.80;52.00
36690;DHT22;22676;51.120;3.702;2024-03-22T15:02:00;22.80;51.80
36690;DHT22;22676;51.120;3.702;2024-03-22T15:04:25;22.80;51.80
36690;DHT22;22676;51.120;3.702;2024-03-22T15:06:51;22.80;51.80
36690;DHT22;22676;51.120;3.702;2024-03-22T15:09:19;22.80;51.80
36690;DHT22;22676;51.120;3.702;2024-03-22T15:11:45;22.70;51.60
36690;DHT22;22676;51.120;3.702;2024-03-22T15:14:11;22.70;51.60
36690;DHT22;22676;51.120;3.702;2024-03-22T15:16:37;22.70;51.50
36690;DHT22;22676;51.120;3.702;2024-03-22T15:19:03;22.70;53.60
36690;DHT22;22676;51.120;3.702;2024-03-22T15:21:28;22.80;53.10